sensor_id;sensor_type;location;lat;lon;timestamp;P1;durP1;ratioP1;P2;durP2;ratioP2
3407;SDS011;1717;50.240;8.406;2023-04-24T00:01:00;2.13;;;1.70;;
3407;SDS011;1717;50.240;8.406;2023-04-24T00:03:27;1.77;;;1.67;;
3407;SDS011;1717;50.240;8.406;2023-04-24T00:05:54;2.87;;;2.30;;
3407;SDS011;1717;50.240;8.406;2023-04-24T00:08:23;2.73;;;2.07;;
3407;SDS011;1717;50.240;8.406;2023-04-24T00:10:50;2.90;;;2.40;;
3407;SDS011;1717;50.240;8.406;2023-04-24T00:13:17;2.40;;;2.20;;
3407;SDS011;1717;50.240;8.406;2023-04-24T00:15:44;3.63;;;2.50;;
3407;SDS011;1717;50.240;8.406;2023-04-24T00:18:11;4.80;;;2.33;;
3407;SDS011;1717;50.240;8.406;2023-04-24T00:20:38;3.80;;;2.27;;
3407;SDS011;1717;50.240;8.406;2023-04-24T00:23:05;3.07;;;2.37;;
3407;SDS011;1717;50.240;8.406;2023-04-24T00:25:33;2.27;;;2.07;;
3407;SDS011;1717;50.240;8.406;2023-04-24T00:28:00;2.43;;;2.23;;
3407;SDS011;1717;50.240;8.406;2023-04-24T00:30:27;4.33;;;2.40;;
3407;SDS011;1717;50.240;8.406;2023-04-24T00:32:54;3.50;;;2.47;;
3407;SDS011;1717;50.240;8.406;2023-04-24T00:35:21;2.93;;;2.43;;
3407;SDS011;1717;50.240;8.406;2023-04-24T00:37:48;5.90;;;2.23;;
3407;SDS011;1717;50.240;8.406;2023-04-24T00:40:15;4.80;;;2.70;;
3407;SDS011;1717;50.240;8.406;2023-04-24T00:42:44;3.63;;;3.00;;
3407;SDS011;1717;50.240;8.406;2023-04-24T00:45:11;4.53;;;3.30;;
3407;SDS011;1717;50.240;8.406;2023-04-24T00:47:38;3.07;;;2.70;;
3407;SDS011;1717;50.240;8.406;2023-04-24T00:50:07;3.53;;;2.50;;
3407;SDS011;1717;50.240;8.406;2023-04-24T00:52:34;3.27;;;3.00;;
3407;SDS011;1717;50.240;8.406;2023-04-24T00:55:02;3.13;;;2.77;;
3407;SDS011;1717;50.240;8.406;2023-04-24T00:57:29;5.30;;;3.20;;
3407;SDS011;1717;50.240;8.406;2023-04-24T00:59:58;3.30;;;3.00;;
3407;SDS011;1717;50.240;8.406;2023-04-24T01:02:25;3.17;;;2.97;;
3407;SDS011;1717;50.240;8.406;2023-04-24T01:04:52;3.17;;;2.60;;
3407;SDS011;1717;50.240;8.406;2023-04-24T01:07:19;4.13;;;3.00;;
3407;SDS011;1717;50.240;8.406;2023-04-24T01:09:46;5.50;;;2.90;;
3407;SDS011;1717;50.240;8.406;2023-04-24T01:12:15;2.33;;;2.13;;
3407;SDS011;1717;50.240;8.406;2023-04-24T01:14:43;2.87;;;2.67;;
3407;SDS011;1717;50.240;8.406;2023-04-24T01:17:11;4.53;;;2.60;;
3407;SDS011;1717;50.240;8.406;2023-04-24T01:19:38;3.50;;;2.03;;
3407;SDS011;1717;50.240;8.406;2023-04-24T01:22:10;3.77;;;2.63;;
3407;SDS011;1717;50.240;8.406;2023-04-24T01:24:37;3.10;;;2.80;;
3407;SDS011;1717;50.240;8.406;2023-04-24T01:27:05;3.60;;;3.30;;
3407;SDS011;1717;50.240;8.406;2023-04-24T01:29:32;4.43;;;2.43;;
3407;SDS011;1717;50.240;8.406;2023-04-24T01:32:00;2.10;;;1.90;;
3407;SDS011;1717;50.240;8.406;2023-04-24T01:34:27;2.40;;;1.97;;
3407;SDS011;1717;50.240;8.406;2023-04-24T01:36:54;3.43;;;2.53;;
3407;SDS011;1717;50.240;8.406;2023-04-24T01:39:23;2.20;;;2.00;;
3407;SDS011;1717;50.240;8.406;2023-04-24T01:41:50;3.80;;;1.50;;
3407;SDS011;1717;50.240;8.406;2023-04-24T01:44:18;2.80;;;2.40;;
3407;SDS011;1717;50.240;8.406;2023-04-24T01:46:45;2.50;;;2.20;;
3407;SDS011;1717;50.240;8.406;2023-04-24T01:49:12;3.43;;;2.20;;
3407;SDS011;1717;50.240;8.406;2023-04-24T01:51:39;4.50;;;2.73;;
3407;SDS011;1717;50.240;8.406;2023-04-24T01:54:06;3.03;;;1.90;;
3407;SDS011;1717;50.240;8.406;2023-04-24T01:56:34;2.70;;;2.00;;
3407;SDS011;1717;50.240;8.406;2023-04-24T01:59:02;3.63;;;1.93;;
3407;SDS011;1717;50.240;8.406;2023-04-24T02:01:32;2.00;;;1.90;;
3407;SDS011;1717;50.240;8.406;2023-04-24T02:04:00;3.07;;;2.17;;
3407;SDS011;1717;50.240;8.406;2023-04-24T02:06:27;3.00;;;2.70;;
3407;SDS011;1717;50.240;8.406;2023-04-24T02:08:56;2.37;;;1.90;;
3407;SDS011;1717;50.240;8.406;2023-04-24T02:11:23;3.23;;;2.13;;
3407;SDS011;1717;50.240;8.406;2023-04-24T02:13:52;2.47;;;2.27;;
3407;SDS011;1717;50.240;8.406;2023-04-24T02:16:18;2.30;;;2.10;;
3407;SDS011;1717;50.240;8.406;2023-04-24T02:18:45;2.23;;;2.03;;
3407;SDS011;1717;50.240;8.406;2023-04-24T02:21:12;3.03;;;2.70;;
3407;SDS011;1717;50.240;8.406;2023-04-24T02:23:39;2.30;;;1.70;;
3407;SDS011;1717;50.240;8.406;2023-04-24T02:26:06;2.27;;;1.97;;
3407;SDS011;1717;50.240;8.406;2023-04-24T02:28:33;2.20;;;2.00;;
3407;SDS011;1717;50.240;8.406;2023-04-24T02:31:01;3.90;;;2.07;;
3407;SDS011;1717;50.240;8.406;2023-04-24T02:33:28;3.03;;;1.70;;
3407;SDS011;1717;50.240;8.406;2023-04-24T02:35:55;2.20;;;2.00;;
3407;SDS011;1717;50.240;8.406;2023-04-24T02:38:22;2.20;;;1.57;;
3407;SDS011;1717;50.240;8.406;2023-04-24T02:40:49;2.03;;;1.80;;
3407;SDS011;1717;50.240;8.406;2023-04-24T02:43:15;3.73;;;1.80;;
3407;SDS011;1717;50.240;8.406;2023-04-24T02:45:42;1.77;;;1.67;;
3407;SDS011;1717;50.240;8.406;2023-04-24T02:48:11;1.60;;;1.50;;
3407;SDS011;1717;50.240;8.406;2023-04-24T02:50:37;1.70;;;1.60;;
3407;SDS011;1717;50.240;8.406;2023-04-24T02:53:04;2.63;;;1.97;;
3407;SDS011;1717;50.240;8.406;2023-04-24T02:55:31;1.97;;;1.87;;
3407;SDS011;1717;50.240;8.406;2023-04-24T02:57:58;2.97;;;1.50;;
3407;SDS011;1717;50.240;8.406;2023-04-24T03:00:25;1.47;;;1.37;;
3407;SDS011;1717;50.240;8.406;2023-04-24T03:02:52;1.57;;;1.30;;
3407;SDS011;1717;50.240;8.406;2023-04-24T03:05:20;2.10;;;1.90;;
3407;SDS011;1717;50.240;8.406;2023-04-24T03:07:47;1.90;;;1.80;;
3407;SDS011;1717;50.240;8.406;2023-04-24T03:10:14;1.90;;;1.40;;
3407;SDS011;1717;50.240;8.406;2023-04-24T03:12:40;2.20;;;2.00;;
3407;SDS011;1717;50.240;8.406;2023-04-24T03:15:08;2.23;;;2.03;;
3407;SDS011;1717;50.240;8.406;2023-04-24T03:17:35;2.30;;;2.10;;
3407;SDS011;1717;50.240;8.406;2023-04-24T03:20:02;2.70;;;2.30;;
3407;SDS011;1717;50.240;8.406;2023-04-24T03:22:32;2.50;;;1.77;;
3407;SDS011;1717;50.240;8.406;2023-04-24T03:24:59;2.50;;;2.30;;
3407;SDS011;1717;50.240;8.406;2023-04-24T03:27:26;2.47;;;2.27;;
3407;SDS011;1717;50.240;8.406;2023-04-24T03:29:53;2.43;;;2.23;;
3407;SDS011;1717;50.240;8.406;2023-04-24T03:32:20;2.83;;;2.60;;
3407;SDS011;1717;50.240;8.406;2023-04-24T03:34:47;2.47;;;2.27;;
3407;SDS011;1717;50.240;8.406;2023-04-24T03:37:15;2.20;;;2.00;;
3407;SDS011;1717;50.240;8.406;2023-04-24T03:39:44;2.63;;;2.43;;
3407;SDS011;1717;50.240;8.406;2023-04-24T03:42:11;4.20;;;2.40;;
3407;SDS011;1717;50.240;8.406;2023-04-24T03:44:37;2.67;;;2.47;;
3407;SDS011;1717;50.240;8.406;2023-04-24T03:47:04;3.20;;;2.80;;
3407;SDS011;1717;50.240;8.406;2023-04-24T03:49:31;3.13;;;2.93;;
3407;SDS011;1717;50.240;8.406;2023-04-24T03:51:58;3.50;;;2.30;;
3407;SDS011;1717;50.240;8.406;2023-04-24T03:54:25;2.63;;;2.43;;
3407;SDS011;1717;50.240;8.406;2023-04-24T03:56:54;2.57;;;2.37;;
3407;SDS011;1717;50.240;8.406;2023-04-24T03:59:21;2.80;;;2.60;;
3407;SDS011;1717;50.240;8.406;2023-04-24T04:01:47;2.03;;;1.93;;
3407;SDS011;1717;50.240;8.406;2023-04-24T04:04:14;3.87;;;3.03;;
3407;SDS011;1717;50.240;8.406;2023-04-24T04:06:41;2.40;;;2.20;;
3407;SDS011;1717;50.240;8.406;2023-04-24T04:09:09;4.00;;;2.40;;
3407;SDS011;1717;50.240;8.406;2023-04-24T04:11:36;2.60;;;2.40;;
3407;SDS011;1717;50.240;8.406;2023-04-24T04:14:04;2.63;;;2.43;;
3407;SDS011;1717;50.240;8.406;2023-04-24T04:16:31;3.70;;;2.27;;
3407;SDS011;1717;50.240;8.406;2023-04-24T04:18:58;2.73;;;2.53;;
3407;SDS011;1717;50.240;8.406;2023-04-24T04:21:25;2.80;;;2.60;;
3407;SDS011;1717;50.240;8.406;2023-04-24T04:23:53;2.60;;;2.40;;
3407;SDS011;1717;50.240;8.406;2023-04-24T04:26:19;2.83;;;2.43;;
3407;SDS011;1717;50.240;8.406;2023-04-24T04:28:50;1.77;;;1.67;;
3407;SDS011;1717;50.240;8.406;2023-04-24T04:31:18;1.70;;;1.60;;
3407;SDS011;1717;50.240;8.406;2023-04-24T04:33:45;4.00;;;2.60;;
3407;SDS011;1717;50.240;8.406;2023-04-24T04:36:12;2.03;;;1.93;;
3407;SDS011;1717;50.240;8.406;2023-04-24T04:38:39;4.17;;;2.63;;
3407;SDS011;1717;50.240;8.406;2023-04-24T04:41:07;3.10;;;2.80;;
3407;SDS011;1717;50.240;8.406;2023-04-24T04:43:34;4.07;;;2.27;;
3407;SDS011;1717;50.240;8.406;2023-04-24T04:46:01;2.90;;;2.27;;
3407;SDS011;1717;50.240;8.406;2023-04-24T04:48:30;2.93;;;2.63;;
3407;SDS011;1717;50.240;8.406;2023-04-24T04:50:57;2.73;;;2.53;;
3407;SDS011;1717;50.240;8.406;2023-04-24T04:53:24;2.83;;;2.63;;
3407;SDS011;1717;50.240;8.406;2023-04-24T04:55:51;3.03;;;2.40;;
3407;SDS011;1717;50.240;8.406;2023-04-24T04:58:18;2.53;;;2.33;;
3407;SDS011;1717;50.240;8.406;2023-04-24T05:00:45;3.97;;;2.83;;
3407;SDS011;1717;50.240;8.406;2023-04-24T05:03:11;2.73;;;2.53;;
3407;SDS011;1717;50.240;8.406;2023-04-24T05:05:40;4.00;;;2.43;;
3407;SDS011;1717;50.240;8.406;2023-04-24T05:08:06;2.60;;;2.33;;
3407;SDS011;1717;50.240;8.406;2023-04-24T05:10:33;3.20;;;2.53;;
3407;SDS011;1717;50.240;8.406;2023-04-24T05:13:02;2.70;;;2.50;;
3407;SDS011;1717;50.240;8.406;2023-04-24T05:15:28;3.37;;;2.93;;
3407;SDS011;1717;50.240;8.406;2023-04-24T05:17:56;3.30;;;3.00;;
3407;SDS011;1717;50.240;8.406;2023-04-24T05:20:22;3.80;;;2.93;;
3407;SDS011;1717;50.240;8.406;2023-04-24T05:22:51;4.03;;;2.40;;
3407;SDS011;1717;50.240;8.406;2023-04-24T05:25:18;3.33;;;3.00;;
3407;SDS011;1717;50.240;8.406;2023-04-24T05:27:44;3.33;;;3.03;;
3407;SDS011;1717;50.240;8.406;2023-04-24T05:30:12;2.73;;;2.30;;
3407;SDS011;1717;50.240;8.406;2023-04-24T05:32:39;3.47;;;3.17;;
3407;SDS011;1717;50.240;8.406;2023-04-24T05:35:06;7.40;;;3.10;;
3407;SDS011;1717;50.240;8.406;2023-04-24T05:37:33;4.40;;;3.70;;
3407;SDS011;1717;50.240;8.406;2023-04-24T05:40:01;4.07;;;3.17;;
3407;SDS011;1717;50.240;8.406;2023-04-24T05:42:30;8.33;;;3.27;;
3407;SDS011;1717;50.240;8.406;2023-04-24T05:44:57;3.80;;;3.40;;
3407;SDS011;1717;50.240;8.406;2023-04-24T05:47:24;2.90;;;2.70;;
3407;SDS011;1717;50.240;8.406;2023-04-24T05:49:51;6.80;;;3.90;;
3407;SDS011;1717;50.240;8.406;2023-04-24T05:52:18;5.00;;;3.70;;
3407;SDS011;1717;50.240;8.406;2023-04-24T05:54:45;3.20;;;2.87;;
3407;SDS011;1717;50.240;8.406;2023-04-24T05:57:13;4.80;;;3.37;;
3407;SDS011;1717;50.240;8.406;2023-04-24T05:59:40;3.60;;;3.20;;
3407;SDS011;1717;50.240;8.406;2023-04-24T06:02:07;3.27;;;3.00;;
3407;SDS011;1717;50.240;8.406;2023-04-24T06:04:34;4.07;;;3.67;;
3407;SDS011;1717;50.240;8.406;2023-04-24T06:07:01;4.43;;;4.03;;
3407;SDS011;1717;50.240;8.406;2023-04-24T06:09:28;4.83;;;4.33;;
3407;SDS011;1717;50.240;8.406;2023-04-24T06:11:54;5.50;;;4.00;;
3407;SDS011;1717;50.240;8.406;2023-04-24T06:14:23;4.77;;;4.10;;
3407;SDS011;1717;50.240;8.406;2023-04-24T06:16:50;7.80;;;4.77;;
3407;SDS011;1717;50.240;8.406;2023-04-24T06:19:17;6.03;;;5.47;;
3407;SDS011;1717;50.240;8.406;2023-04-24T06:21:44;5.97;;;5.37;;
3407;SDS011;1717;50.240;8.406;2023-04-24T06:24:13;7.93;;;6.37;;
3407;SDS011;1717;50.240;8.406;2023-04-24T06:26:40;6.53;;;5.93;;
3407;SDS011;1717;50.240;8.406;2023-04-24T06:29:07;7.80;;;7.00;;
3407;SDS011;1717;50.240;8.406;2023-04-24T06:31:35;8.37;;;7.00;;
3407;SDS011;1717;50.240;8.406;2023-04-24T06:34:02;7.53;;;6.50;;
3407;SDS011;1717;50.240;8.406;2023-04-24T06:36:30;9.60;;;7.43;;
3407;SDS011;1717;50.240;8.406;2023-04-24T06:38:59;8.97;;;6.90;;
3407;SDS011;1717;50.240;8.406;2023-04-24T06:41:26;8.77;;;7.30;;
3407;SDS011;1717;50.240;8.406;2023-04-24T06:43:54;8.23;;;7.43;;
3407;SDS011;1717;50.240;8.406;2023-04-24T06:46:21;11.70;;;7.80;;
3407;SDS011;1717;50.240;8.406;2023-04-24T06:48:52;9.33;;;7.27;;
3407;SDS011;1717;50.240;8.406;2023-04-24T06:51:22;10.13;;;7.30;;
3407;SDS011;1717;50.240;8.406;2023-04-24T06:53:49;9.73;;;8.17;;
3407;SDS011;1717;50.240;8.406;2023-04-24T06:56:17;8.30;;;7.47;;
3407;SDS011;1717;50.240;8.406;2023-04-24T06:58:44;7.10;;;6.40;;
3407;SDS011;1717;50.240;8.406;2023-04-24T07:01:14;7.73;;;6.40;;
3407;SDS011;1717;50.240;8.406;2023-04-24T07:03:40;8.40;;;6.10;;
3407;SDS011;1717;50.240;8.406;2023-04-24T07:06:09;8.07;;;6.43;;
3407;SDS011;1717;50.240;8.406;2023-04-24T07:08:36;8.33;;;7.30;;
3407;SDS011;1717;50.240;8.406;2023-04-24T07:11:03;7.43;;;6.60;;
3407;SDS011;1717;50.240;8.406;2023-04-24T07:13:30;8.20;;;5.77;;
3407;SDS011;1717;50.240;8.406;2023-04-24T07:15:57;5.47;;;4.97;;
3407;SDS011;1717;50.240;8.406;2023-04-24T07:18:24;4.80;;;4.40;;
3407;SDS011;1717;50.240;8.406;2023-04-24T07:20:51;6.17;;;5.37;;
3407;SDS011;1717;50.240;8.406;2023-04-24T07:23:19;6.20;;;5.60;;
3407;SDS011;1717;50.240;8.406;2023-04-24T07:25:46;4.83;;;4.30;;
3407;SDS011;1717;50.240;8.406;2023-04-24T07:28:13;4.90;;;4.50;;
3407;SDS011;1717;50.240;8.406;2023-04-24T07:30:40;5.30;;;4.90;;
3407;SDS011;1717;50.240;8.406;2023-04-24T07:33:07;4.70;;;4.30;;
3407;SDS011;1717;50.240;8.406;2023-04-24T07:35:36;8.13;;;4.87;;
3407;SDS011;1717;50.240;8.406;2023-04-24T07:38:03;4.77;;;4.30;;
3407;SDS011;1717;50.240;8.406;2023-04-24T07:40:31;5.87;;;4.30;;
3407;SDS011;1717;50.240;8.406;2023-04-24T07:42:58;5.70;;;4.87;;
3407;SDS011;1717;50.240;8.406;2023-04-24T07:45:25;5.00;;;4.50;;
3407;SDS011;1717;50.240;8.406;2023-04-24T07:47:53;4.50;;;3.50;;
3407;SDS011;1717;50.240;8.406;2023-04-24T07:50:20;7.30;;;4.10;;
3407;SDS011;1717;50.240;8.406;2023-04-24T07:52:47;8.60;;;4.20;;
3407;SDS011;1717;50.240;8.406;2023-04-24T07:55:14;4.27;;;3.90;;
3407;SDS011;1717;50.240;8.406;2023-04-24T07:57:43;4.20;;;3.80;;
3407;SDS011;1717;50.240;8.406;2023-04-24T08:00:10;6.93;;;4.30;;
3407;SDS011;1717;50.240;8.406;2023-04-24T08:02:37;5.27;;;4.77;;
3407;SDS011;1717;50.240;8.406;2023-04-24T08:05:05;4.33;;;3.93;;
3407;SDS011;1717;50.240;8.406;2023-04-24T08:07:32;4.30;;;3.90;;
3407;SDS011;1717;50.240;8.406;2023-04-24T08:10:00;5.00;;;4.50;;
3407;SDS011;1717;50.240;8.406;2023-04-24T08:12:27;5.20;;;4.57;;
3407;SDS011;1717;50.240;8.406;2023-04-24T08:14:56;5.70;;;4.80;;
3407;SDS011;1717;50.240;8.406;2023-04-24T08:17:23;4.33;;;3.43;;
3407;SDS011;1717;50.240;8.406;2023-04-24T08:19:50;6.70;;;4.23;;
3407;SDS011;1717;50.240;8.406;2023-04-24T08:22:18;4.30;;;3.90;;
3407;SDS011;1717;50.240;8.406;2023-04-24T08:24:45;4.73;;;4.23;;
3407;SDS011;1717;50.240;8.406;2023-04-24T08:27:12;4.10;;;3.70;;
3407;SDS011;1717;50.240;8.406;2023-04-24T08:29:39;4.90;;;4.40;;
3407;SDS011;1717;50.240;8.406;2023-04-24T08:32:07;5.00;;;3.70;;
3407;SDS011;1717;50.240;8.406;2023-04-24T08:34:34;4.20;;;3.80;;
3407;SDS011;1717;50.240;8.406;2023-04-24T08:37:02;4.00;;;3.60;;
3407;SDS011;1717;50.240;8.406;2023-04-24T08:39:29;3.93;;;3.53;;
3407;SDS011;1717;50.240;8.406;2023-04-24T08:41:56;4.00;;;3.43;;
3407;SDS011;1717;50.240;8.406;2023-04-24T08:44:30;3.57;;;3.27;;
3407;SDS011;1717;50.240;8.406;2023-04-24T08:46:58;3.77;;;3.40;;
3407;SDS011;1717;50.240;8.406;2023-04-24T08:49:26;4.20;;;3.90;;
3407;SDS011;1717;50.240;8.406;2023-04-24T08:51:54;5.50;;;4.97;;
3407;SDS011;1717;50.240;8.406;2023-04-24T08:54:21;4.67;;;4.30;;
3407;SDS011;1717;50.240;8.406;2023-04-24T08:56:48;4.87;;;4.47;;
3407;SDS011;1717;50.240;8.406;2023-04-24T08:59:16;3.97;;;3.67;;
3407;SDS011;1717;50.240;8.406;2023-04-24T09:01:43;3.37;;;3.13;;
3407;SDS011;1717;50.240;8.406;2023-04-24T09:04:12;3.30;;;3.00;;
3407;SDS011;1717;50.240;8.406;2023-04-24T09:06:44;3.90;;;3.20;;
3407;SDS011;1717;50.240;8.406;2023-04-24T09:09:11;4.13;;;3.73;;
3407;SDS011;1717;50.240;8.406;2023-04-24T09:11:38;3.50;;;3.20;;
3407;SDS011;1717;50.240;8.406;2023-04-24T09:14:06;4.37;;;3.97;;
3407;SDS011;1717;50.240;8.406;2023-04-24T09:16:35;3.00;;;2.70;;
3407;SDS011;1717;50.240;8.406;2023-04-24T09:19:02;3.57;;;2.97;;
3407;SDS011;1717;50.240;8.406;2023-04-24T09:21:31;3.23;;;2.93;;
3407;SDS011;1717;50.240;8.406;2023-04-24T09:24:00;3.97;;;3.30;;
3407;SDS011;1717;50.240;8.406;2023-04-24T09:26:29;3.00;;;2.70;;
3407;SDS011;1717;50.240;8.406;2023-04-24T09:28:58;4.83;;;2.70;;
3407;SDS011;1717;50.240;8.406;2023-04-24T09:31:26;2.53;;;2.33;;
3407;SDS011;1717;50.240;8.406;2023-04-24T09:33:55;2.50;;;2.30;;
3407;SDS011;1717;50.240;8.406;2023-04-24T09:36:27;2.90;;;2.60;;
3407;SDS011;1717;50.240;8.406;2023-04-24T09:38:57;2.83;;;2.33;;
3407;SDS011;1717;50.240;8.406;2023-04-24T09:41:26;2.40;;;2.20;;
3407;SDS011;1717;50.240;8.406;2023-04-24T09:43:54;2.60;;;2.40;;
3407;SDS011;1717;50.240;8.406;2023-04-24T09:46:28;2.90;;;2.40;;
3407;SDS011;1717;50.240;8.406;2023-04-24T09:48:56;2.80;;;2.60;;
3407;SDS011;1717;50.240;8.406;2023-04-24T09:51:33;2.23;;;2.13;;
3407;SDS011;1717;50.240;8.406;2023-04-24T09:54:01;2.37;;;2.10;;
3407;SDS011;1717;50.240;8.406;2023-04-24T09:56:29;2.00;;;1.90;;
3407;SDS011;1717;50.240;8.406;2023-04-24T09:59:04;2.07;;;1.93;;
3407;SDS011;1717;50.240;8.406;2023-04-24T10:01:31;2.90;;;2.03;;
3407;SDS011;1717;50.240;8.406;2023-04-24T10:03:58;2.33;;;2.23;;
3407;SDS011;1717;50.240;8.406;2023-04-24T10:06:29;2.90;;;2.20;;
3407;SDS011;1717;50.240;8.406;2023-04-24T10:08:59;2.37;;;2.17;;
3407;SDS011;1717;50.240;8.406;2023-04-24T10:11:26;2.30;;;2.10;;
3407;SDS011;1717;50.240;8.406;2023-04-24T10:13:54;2.70;;;2.50;;
3407;SDS011;1717;50.240;8.406;2023-04-24T10:16:22;2.20;;;2.00;;
3407;SDS011;1717;50.240;8.406;2023-04-24T10:18:52;3.23;;;2.00;;
3407;SDS011;1717;50.240;8.406;2023-04-24T10:21:19;2.37;;;1.80;;
3407;SDS011;1717;50.240;8.406;2023-04-24T10:23:46;1.97;;;1.87;;
3407;SDS011;1717;50.240;8.406;2023-04-24T10:26:15;1.70;;;1.60;;
3407;SDS011;1717;50.240;8.406;2023-04-24T10:28:44;3.73;;;2.37;;
3407;SDS011;1717;50.240;8.406;2023-04-24T10:31:12;2.50;;;1.50;;
3407;SDS011;1717;50.240;8.406;2023-04-24T10:33:40;1.90;;;1.57;;
3407;SDS011;1717;50.240;8.406;2023-04-24T10:36:08;2.70;;;1.97;;
3407;SDS011;1717;50.240;8.406;2023-04-24T10:38:37;2.47;;;2.27;;
3407;SDS011;1717;50.240;8.406;2023-04-24T10:41:06;1.77;;;1.67;;
3407;SDS011;1717;50.240;8.406;2023-04-24T10:43:35;2.33;;;2.20;;
3407;SDS011;1717;50.240;8.406;2023-04-24T10:46:02;1.80;;;1.70;;
3407;SDS011;1717;50.240;8.406;2023-04-24T10:48:33;2.40;;;2.20;;
3407;SDS011;1717;50.240;8.406;2023-04-24T10:51:00;2.10;;;1.90;;
3407;SDS011;1717;50.240;8.406;2023-04-24T10:53:28;1.87;;;1.77;;
3407;SDS011;1717;50.240;8.406;2023-04-24T10:56:00;2.43;;;1.87;;
3407;SDS011;1717;50.240;8.406;2023-04-24T10:58:36;2.50;;;2.10;;
3407;SDS011;1717;50.240;8.406;2023-04-24T11:01:05;3.97;;;1.77;;
3407;SDS011;1717;50.240;8.406;2023-04-24T11:03:34;1.80;;;1.63;;
3407;SDS011;1717;50.240;8.406;2023-04-24T11:06:03;1.97;;;1.70;;
3407;SDS011;1717;50.240;8.406;2023-04-24T11:08:32;2.10;;;1.90;;
3407;SDS011;1717;50.240;8.406;2023-04-24T11:11:04;2.27;;;2.00;;
3407;SDS011;1717;50.240;8.406;2023-04-24T11:16:28;2.30;;;2.10;;
3407;SDS011;1717;50.240;8.406;2023-04-24T11:19:01;2.40;;;2.07;;
3407;SDS011;1717;50.240;8.406;2023-04-24T11:21:38;3.10;;;2.00;;
3407;SDS011;1717;50.240;8.406;2023-04-24T11:24:26;2.30;;;2.10;;
3407;SDS011;1717;50.240;8.406;2023-04-24T11:26:56;2.77;;;2.50;;
3407;SDS011;1717;50.240;8.406;2023-04-24T11:29:37;2.43;;;2.23;;
3407;SDS011;1717;50.240;8.406;2023-04-24T11:35:02;2.40;;;2.20;;
3407;SDS011;1717;50.240;8.406;2023-04-24T11:37:33;2.93;;;2.67;;
3407;SDS011;1717;50.240;8.406;2023-04-24T11:40:02;5.27;;;3.20;;
3407;SDS011;1717;50.240;8.406;2023-04-24T11:42:33;3.50;;;2.93;;
3407;SDS011;1717;50.240;8.406;2023-04-24T11:45:00;3.50;;;3.20;;
3407;SDS011;1717;50.240;8.406;2023-04-24T11:47:29;4.30;;;3.90;;
3407;SDS011;1717;50.240;8.406;2023-04-24T11:49:56;4.80;;;3.80;;
3407;SDS011;1717;50.240;8.406;2023-04-24T11:52:25;5.23;;;3.30;;
3407;SDS011;1717;50.240;8.406;2023-04-24T11:54:52;3.50;;;2.90;;
3407;SDS011;1717;50.240;8.406;2023-04-24T11:57:19;4.10;;;3.43;;
3407;SDS011;1717;50.240;8.406;2023-04-24T11:59:47;3.67;;;2.90;;
3407;SDS011;1717;50.240;8.406;2023-04-24T12:02:21;3.40;;;3.10;;
3407;SDS011;1717;50.240;8.406;2023-04-24T12:04:49;3.90;;;3.60;;
3407;SDS011;1717;50.240;8.406;2023-04-24T12:07:16;3.40;;;2.83;;
3407;SDS011;1717;50.240;8.406;2023-04-24T12:09:44;3.80;;;3.00;;
3407;SDS011;1717;50.240;8.406;2023-04-24T12:12:13;3.70;;;3.20;;
3407;SDS011;1717;50.240;8.406;2023-04-24T12:14:44;5.13;;;3.70;;
3407;SDS011;1717;50.240;8.406;2023-04-24T12:17:11;2.87;;;2.67;;
3407;SDS011;1717;50.240;8.406;2023-04-24T12:19:44;6.70;;;3.73;;
3407;SDS011;1717;50.240;8.406;2023-04-24T12:22:12;5.33;;;4.07;;
3407;SDS011;1717;50.240;8.406;2023-04-24T12:27:29;4.77;;;4.23;;
3407;SDS011;1717;50.240;8.406;2023-04-24T12:29:57;6.20;;;4.50;;
3407;SDS011;1717;50.240;8.406;2023-04-24T12:32:25;5.93;;;4.40;;
3407;SDS011;1717;50.240;8.406;2023-04-24T12:34:53;6.70;;;4.43;;
3407;SDS011;1717;50.240;8.406;2023-04-24T12:37:21;5.17;;;4.47;;
3407;SDS011;1717;50.240;8.406;2023-04-24T12:39:59;4.80;;;4.20;;
3407;SDS011;1717;50.240;8.406;2023-04-24T12:42:29;8.80;;;4.90;;
3407;SDS011;1717;50.240;8.406;2023-04-24T12:44:57;5.83;;;4.90;;
3407;SDS011;1717;50.240;8.406;2023-04-24T12:47:25;5.70;;;4.80;;
3407;SDS011;1717;50.240;8.406;2023-04-24T12:49:52;7.07;;;5.20;;
3407;SDS011;1717;50.240;8.406;2023-04-24T12:52:20;6.10;;;5.40;;
3407;SDS011;1717;50.240;8.406;2023-04-24T12:54:48;6.77;;;5.00;;
3407;SDS011;1717;50.240;8.406;2023-04-24T12:57:17;5.53;;;4.80;;
3407;SDS011;1717;50.240;8.406;2023-04-24T12:59:44;5.33;;;4.83;;
3407;SDS011;1717;50.240;8.406;2023-04-24T13:02:11;5.23;;;4.73;;
3407;SDS011;1717;50.240;8.406;2023-04-24T13:04:39;5.33;;;4.30;;
3407;SDS011;1717;50.240;8.406;2023-04-24T13:07:06;5.00;;;4.60;;
3407;SDS011;1717;50.240;8.406;2023-04-24T13:09:34;5.40;;;4.90;;
3407;SDS011;1717;50.240;8.406;2023-04-24T13:12:01;4.83;;;4.43;;
3407;SDS011;1717;50.240;8.406;2023-04-24T13:14:31;6.00;;;4.57;;
3407;SDS011;1717;50.240;8.406;2023-04-24T13:16:58;5.10;;;4.60;;
3407;SDS011;1717;50.240;8.406;2023-04-24T13:19:25;5.37;;;4.87;;
3407;SDS011;1717;50.240;8.406;2023-04-24T13:21:54;5.60;;;5.10;;
3407;SDS011;1717;50.240;8.406;2023-04-24T13:24:22;5.97;;;4.73;;
3407;SDS011;1717;50.240;8.406;2023-04-24T13:26:50;6.07;;;5.00;;
3407;SDS011;1717;50.240;8.406;2023-04-24T13:29:17;4.67;;;4.27;;
3407;SDS011;1717;50.240;8.406;2023-04-24T13:31:45;5.40;;;4.90;;
3407;SDS011;1717;50.240;8.406;2023-04-24T13:34:12;6.27;;;4.80;;
3407;SDS011;1717;50.240;8.406;2023-04-24T13:36:39;8.03;;;5.40;;
3407;SDS011;1717;50.240;8.406;2023-04-24T13:39:06;6.47;;;5.90;;
3407;SDS011;1717;50.240;8.406;2023-04-24T13:41:33;8.17;;;5.50;;
3407;SDS011;1717;50.240;8.406;2023-04-24T13:44:00;8.00;;;5.80;;
3407;SDS011;1717;50.240;8.406;2023-04-24T13:46:27;16.67;;;6.97;;
3407;SDS011;1717;50.240;8.406;2023-04-24T13:48:55;7.33;;;6.63;;
3407;SDS011;1717;50.240;8.406;2023-04-24T13:51:23;7.37;;;5.80;;
3407;SDS011;1717;50.240;8.406;2023-04-24T13:53:52;8.67;;;5.73;;
3407;SDS011;1717;50.240;8.406;2023-04-24T13:56:19;8.93;;;5.50;;
3407;SDS011;1717;50.240;8.406;2023-04-24T13:58:46;8.13;;;5.33;;
3407;SDS011;1717;50.240;8.406;2023-04-24T14:01:13;10.20;;;6.50;;
3407;SDS011;1717;50.240;8.406;2023-04-24T14:03:40;6.37;;;5.77;;
3407;SDS011;1717;50.240;8.406;2023-04-24T14:06:09;7.87;;;6.50;;
3407;SDS011;1717;50.240;8.406;2023-04-24T14:08:36;7.80;;;5.17;;
3407;SDS011;1717;50.240;8.406;2023-04-24T14:11:03;8.10;;;5.63;;
3407;SDS011;1717;50.240;8.406;2023-04-24T14:13:30;7.27;;;5.67;;
3407;SDS011;1717;50.240;8.406;2023-04-24T14:15:57;5.80;;;5.03;;
3407;SDS011;1717;50.240;8.406;2023-04-24T14:18:24;6.63;;;4.70;;
3407;SDS011;1717;50.240;8.406;2023-04-24T14:20:52;7.10;;;5.50;;
3407;SDS011;1717;50.240;8.406;2023-04-24T14:23:20;5.60;;;4.80;;
3407;SDS011;1717;50.240;8.406;2023-04-24T14:25:47;7.90;;;5.17;;
3407;SDS011;1717;50.240;8.406;2023-04-24T14:28:16;7.77;;;4.80;;
3407;SDS011;1717;50.240;8.406;2023-04-24T14:30:44;7.90;;;5.60;;
3407;SDS011;1717;50.240;8.406;2023-04-24T14:33:10;5.67;;;5.10;;
3407;SDS011;1717;50.240;8.406;2023-04-24T14:35:38;6.27;;;5.67;;
3407;SDS011;1717;50.240;8.406;2023-04-24T14:38:05;7.10;;;5.43;;
3407;SDS011;1717;50.240;8.406;2023-04-24T14:40:33;8.73;;;5.10;;
3407;SDS011;1717;50.240;8.406;2023-04-24T14:43:00;11.60;;;5.40;;
3407;SDS011;1717;50.240;8.406;2023-04-24T14:45:28;6.40;;;5.47;;
3407;SDS011;1717;50.240;8.406;2023-04-24T14:47:55;8.63;;;5.30;;
3407;SDS011;1717;50.240;8.406;2023-04-24T14:50:22;6.30;;;5.70;;
3407;SDS011;1717;50.240;8.406;2023-04-24T14:52:52;5.77;;;5.20;;
3407;SDS011;1717;50.240;8.406;2023-04-24T14:55:19;7.40;;;5.10;;
3407;SDS011;1717;50.240;8.406;2023-04-24T14:57:48;5.60;;;5.10;;
3407;SDS011;1717;50.240;8.406;2023-04-24T15:00:15;6.80;;;5.17;;
3407;SDS011;1717;50.240;8.406;2023-04-24T15:02:42;5.80;;;5.13;;
3407;SDS011;1717;50.240;8.406;2023-04-24T15:05:09;7.07;;;5.50;;
3407;SDS011;1717;50.240;8.406;2023-04-24T15:07:37;7.43;;;5.57;;
3407;SDS011;1717;50.240;8.406;2023-04-24T15:10:04;7.60;;;4.97;;
3407;SDS011;1717;50.240;8.406;2023-04-24T15:12:31;4.90;;;4.50;;
3407;SDS011;1717;50.240;8.406;2023-04-24T15:14:59;5.40;;;4.90;;
3407;SDS011;1717;50.240;8.406;2023-04-24T15:17:26;8.10;;;5.20;;
3407;SDS011;1717;50.240;8.406;2023-04-24T15:19:53;5.30;;;4.80;;
3407;SDS011;1717;50.240;8.406;2023-04-24T15:22:20;6.70;;;4.90;;
3407;SDS011;1717;50.240;8.406;2023-04-24T15:24:47;5.87;;;5.00;;
3407;SDS011;1717;50.240;8.406;2023-04-24T15:27:14;6.87;;;5.43;;